Time;durP1;ratioP1;P1;durP2;ratioP2;P2;SDS_P1;SDS_P2;PMS_P1;PMS_P2;Temp;Humidity;BMP_temperature;BMP_pressure;BME280_temperature;BME280_humidity;BME280_pressure;Samples;Min_cycle;Max_cycle;Signal;HPM_P1;HPM_P2
2022/09/04 00:01:54;;;;;;;;;;;;;;;17.69;100.00;101249.59;5322493;27;19927;-77
2022/09/04 00:04:44;;;;;;;;;;;;;;;17.64;100.00;101254.69;5326062;27;19955;-77
2022/09/04 00:07:21;;;;;;;;;;;;;;;17.61;100.00;101259.59;5321921;27;19919;-77
2022/09/04 00:09:56;;;;;;;;;;;;;;;17.55;100.00;101259.28;5323134;27;19920;-75
2022/09/04 00:12:30;;;;;;;;;;;;;;;17.48;100.00;101263.72;5329389;27;19931;-77
2022/09/04 00:15:12;;;;;;;;;;;;;;;17.43;100.00;101268.78;5321251;27;20376;-77
2022/09/04 00:17:48;;;;;;;;;;;;;;;17.37;100.00;101269.50;5323469;27;19916;-75
2022/09/04 00:20:27;;;;;;;;;;;;;;;17.31;100.00;101271.03;5321668;27;19963;-77
2022/09/04 00:23:10;;;;;;;;;;;;;;;17.27;100.00;101276.94;5322988;27;19916;-77
2022/09/04 00:25:51;;;;;;;;;;;;;;;17.23;100.00;101276.47;5323534;27;19916;-77
2022/09/04 00:28:31;;;;;;;;;;;;;;;17.23;100.00;101272.94;5321590;27;19923;-77
2022/09/04 00:31:13;;;;;;;;;;;;;;;17.19;100.00;101267.06;5321762;27;19920;-77
2022/09/04 00:33:53;;;;;;;;;;;;;;;17.13;100.00;101270.47;5321877;27;20015;-77
2022/09/04 00:36:26;;;;;;;;;;;;;;;17.07;100.00;101266.59;5321842;27;19923;-77
2022/09/04 00:39:01;;;;;;;;;;;;;;;17.01;100.00;101270.00;5322750;27;19920;-77
2022/09/04 00:41:39;;;;;;;;;;;;;;;16.95;100.00;101274.25;5326700;27;20345;-77
2022/09/04 00:44:30;;;;;;;;;;;;;;;16.96;100.00;101275.06;5321804;27;19924;-77
2022/09/04 00:47:20;;;;;;;;;;;;;;;16.97;100.00;101284.81;5324837;27;20792;-77
2022/09/04 00:50:03;;;;;;;;;;;;;;;16.97;100.00;101276.75;5321849;27;19919;-77
2022/09/04 00:52:53;;;;;;;;;;;;;;;16.98;100.00;101292.72;5321927;27;19971;-77
2022/09/04 00:55:43;;;;;;;;;;;;;;;16.97;100.00;101285.69;5320618;27;19920;-77
2022/09/04 00:58:32;;;;;;;;;;;;;;;16.93;100.00;101289.72;5321676;27;20361;-77
2022/09/04 01:01:04;;;;;;;;;;;;;;;16.86;100.00;101288.72;5321947;27;19920;-77
2022/09/04 01:03:48;;;;;;;;;;;;;;;16.80;100.00;101290.25;5321990;27;19973;-77
2022/09/04 01:06:32;;;;;;;;;;;;;;;16.74;100.00;101290.09;5319341;27;19974;-77
2022/09/04 01:09:23;;;;;;;;;;;;;;;16.68;100.00;101290.78;5335208;27;20367;-77
2022/09/04 01:12:06;;;;;;;;;;;;;;;16.67;100.00;101294.47;5321573;27;19924;-77
2022/09/04 01:14:40;;;;;;;;;;;;;;;16.62;100.00;101297.72;5321801;27;20384;-77
2022/09/04 01:17:16;;;;;;;;;;;;;;;16.61;100.00;101301.41;5321362;27;19938;-77
2022/09/04 01:20:04;;;;;;;;;;;;;;;16.57;100.00;101306.28;5319684;27;19924;-77
2022/09/04 01:23:03;;;;;;;;;;;;;;;16.54;100.00;101305.78;5321773;27;20012;-77
2022/09/04 01:25:46;;;;;;;;;;;;;;;16.51;100.00;101314.19;5320965;27;20443;-77
2022/09/04 01:28:32;;;;;;;;;;;;;;;16.50;100.00;101320.63;5317240;27;19920;-77
2022/09/04 01:31:10;;;;;;;;;;;;;;;16.47;100.00;101319.09;5321855;27;19916;-77
2022/09/04 01:33:54;;;;;;;;;;;;;;;16.47;100.00;101316.38;5321682;27;19920;-77
2022/09/04 01:36:28;;;;;;;;;;;;;;;16.45;100.00;101321.09;5319824;27;19920;-77
2022/09/04 01:39:00;;;;;;;;;;;;;;;16.45;100.00;101321.94;5320240;27;19926;-77
2022/09/04 01:41:34;;;;;;;;;;;;;;;16.47;100.00;101320.94;5318726;27;19928;-75
2022/09/04 01:44:07;;;;;;;;;;;;;;;16.45;100.00;101321.94;5320702;27;19916;-75
2022/09/04 01:46:57;;;;;;;;;;;;;;;16.44;100.00;101325.66;5326083;27;19951;-76
2022/09/04 01:49:43;;;;;;;;;;;;;;;16.42;100.00;101330.34;5320001;27;19938;-76
2022/09/04 01:52:20;;;;;;;;;;;;;;;16.39;100.00;101332.53;5318973;27;19924;-76
2022/09/04 01:54:58;;;;;;;;;;;;;;;16.36;100.00;101332.91;5320441;27;19973;-76
2022/09/04 01:57:52;;;;;;;;;;;;;;;16.36;100.00;101335.59;5319892;27;19917;-76
2022/09/04 02:00:24;;;;;;;;;;;;;;;16.37;100.00;101342.63;5320018;27;19965;-76
2022/09/04 02:03:01;;;;;;;;;;;;;;;16.36;100.00;101346.34;5321515;27;20353;-76
2022/09/04 02:05:47;;;;;;;;;;;;;;;16.36;100.00;101349.06;5317383;27;19920;-76
2022/09/04 02:08:46;;;;;;;;;;;;;;;16.32;100.00;101355.75;5330421;27;19919;-76
2022/09/04 02:11:18;;;;;;;;;;;;;;;16.30;100.00;101352.41;5310346;27;20404;-76
2022/09/04 02:13:55;;;;;;;;;;;;;;;16.30;100.00;101357.78;5324752;27;19916;-76
2022/09/04 02:16:32;;;;;;;;;;;;;;;16.27;100.00;101356.28;5319956;27;19916;-76
2022/09/04 02:19:10;;;;;;;;;;;;;;;16.25;100.00;101355.59;5320016;27;20291;-76
2022/09/04 02:21:42;;;;;;;;;;;;;;;16.19;100.00;101365.16;5320973;27;20012;-76
2022/09/04 02:24:20;;;;;;;;;;;;;;;16.14;100.00;101364.81;5320392;27;20401;-76
2022/09/04 02:27:00;;;;;;;;;;;;;;;16.13;100.00;101365.84;5321605;27;19923;-76
2022/09/04 02:29:38;;;;;;;;;;;;;;;16.12;100.00;101368.72;5321205;27;20067;-76
2022/09/04 02:32:17;;;;;;;;;;;;;;;16.10;100.00;101366.19;5318482;27;20678;-76
2022/09/04 02:34:55;;;;;;;;;;;;;;;16.09;100.00;101369.03;5317733;27;19963;-76
2022/09/04 02:37:26;;;;;;;;;;;;;;;16.06;100.00;101379.13;5316670;27;20453;-76
2022/09/04 02:40:17;;;;;;;;;;;;;;;16.06;100.00;101375.59;5321574;27;19924;-76
2022/09/04 02:43:07;;;;;;;;;;;;;;;16.07;100.00;101372.72;5324622;27;20303;-76
2022/09/04 02:45:47;;;;;;;;;;;;;;;16.08;100.00;101376.28;5323580;27;19916;-76
2022/09/04 02:48:27;;;;;;;;;;;;;;;16.07;100.00;101391.56;5322487;27;19924;-76
2022/09/04 02:51:17;;;;;;;;;;;;;;;16.05;100.00;101388.19;5324071;27;19971;-76
2022/09/04 02:54:07;;;;;;;;;;;;;;;16.01;100.00;101392.22;5324432;27;20480;-76
2022/09/04 02:56:57;;;;;;;;;;;;;;;16.01;100.00;101391.41;5330883;27;20284;-76
2022/09/04 02:59:46;;;;;;;;;;;;;;;15.99;100.00;101398.78;5323154;27;20288;-76
2022/09/04 03:02:26;;;;;;;;;;;;;;;15.97;100.00;101404.34;5323985;27;19918;-76
2022/09/04 03:05:03;;;;;;;;;;;;;;;15.97;100.00;101406.16;5323161;27;20003;-76
2022/09/04 03:07:41;;;;;;;;;;;;;;;15.92;100.00;101397.75;5322985;27;19977;-76
2022/09/04 03:10:17;;;;;;;;;;;;;;;15.87;100.00;101403.63;5323483;27;19924;-76
2022/09/04 03:12:48;;;;;;;;;;;;;;;15.88;100.00;101408.00;5323200;27;20260;-76
2022/09/04 03:15:28;;;;;;;;;;;;;;;15.85;100.00;101405.66;5324854;27;19927;-77
2022/09/04 03:18:00;;;;;;;;;;;;;;;15.80;100.00;101400.75;5329876;27;19943;-76
2022/09/04 03:20:38;;;;;;;;;;;;;;;15.78;100.00;101408.13;5323937;27;19923;-76
2022/09/04 03:23:27;;;;;;;;;;;;;;;15.75;100.00;101404.94;5320448;27;19927;-76
2022/09/04 03:26:07;;;;;;;;;;;;;;;15.73;100.00;101414.97;5323018;27;19916;-76
2022/09/04 03:28:39;;;;;;;;;;;;;;;15.70;100.00;101411.59;5323971;27;19916;-77
2022/09/04 03:31:28;;;;;;;;;;;;;;;15.68;100.00;101410.09;5324167;27;19927;-76
2022/09/04 03:34:14;;;;;;;;;;;;;;;15.64;100.00;101403.34;5321170;27;20027;-76
2022/09/04 03:36:52;;;;;;;;;;;;;;;15.63;100.00;101410.56;5322293;27;19919;-76
2022/09/04 03:39:35;;;;;;;;;;;;;;;15.59;100.00;101411.06;5320544;27;19916;-76
2022/09/04 03:42:25;;;;;;;;;;;;;;;15.57;100.00;101410.34;5320265;27;19920;-76
2022/09/04 03:45:06;;;;;;;;;;;;;;;15.56;100.00;101412.22;5324081;27;19956;-76
2022/09/04 03:47:44;;;;;;;;;;;;;;;15.54;100.00;101413.38;5322663;27;20338;-76
2022/09/04 03:50:41;;;;;;;;;;;;;;;15.52;100.00;101418.94;5322535;27;19930;-76
2022/09/04 03:53:32;;;;;;;;;;;;;;;15.49;100.00;101420.06;5311856;27;20376;-76
2022/09/04 03:56:23;;;;;;;;;;;;;;;15.49;100.00;101424.63;5322734;27;20260;-76
2022/09/04 03:59:03;;;;;;;;;;;;;;;15.46;100.00;101420.41;5323081;27;19959;-76
2022/09/04 04:01:37;;;;;;;;;;;;;;;15.43;100.00;101422.59;5322469;27;20023;-76
2022/09/04 04:04:14;;;;;;;;;;;;;;;15.41;100.00;101427.25;5321500;27;19969;-76
2022/09/04 04:06:52;;;;;;;;;;;;;;;15.40;100.00;101430.97;5323471;27;19916;-76
2022/09/04 04:09:38;;;;;;;;;;;;;;;15.41;100.00;101429.94;5322844;27;20355;-76
2022/09/04 04:12:18;;;;;;;;;;;;;;;15.40;100.00;101431.78;5321947;27;20425;-76
2022/09/04 04:14:55;;;;;;;;;;;;;;;15.39;100.00;101435.50;5327400;27;20020;-76
2022/09/04 04:18:03;;;;;;;;;;;;;;;15.35;100.00;101431.44;5315240;27;19923;-76
2022/09/04 04:20:40;;;;;;;;;;;;;;;15.31;100.00;101435.44;5295359;28;19927;-75
2022/09/04 04:23:14;;;;;;;;;;;;;;;15.33;100.00;101446.88;5318691;27;19923;-76
2022/09/04 04:26:03;;;;;;;;;;;;;;;15.36;100.00;101449.25;5322458;27;19916;-76
2022/09/04 04:28:47;;;;;;;;;;;;;;;15.39;100.00;101448.06;5320251;27;19920;-76
2022/09/04 04:31:27;;;;;;;;;;;;;;;15.40;100.00;101453.28;5322065;27;20334;-76
2022/09/04 04:34:01;;;;;;;;;;;;;;;15.39;100.00;101457.00;5321619;27;19916;-76
2022/09/04 04:36:44;;;;;;;;;;;;;;;15.38;100.00;101459.84;5322255;27;19926;-77
2022/09/04 04:39:34;;;;;;;;;;;;;;;15.36;100.00;101462.69;5320766;27;19931;-76
2022/09/04 04:42:24;;;;;;;;;;;;;;;15.34;100.00;101456.63;5321798;27;19927;-77
2022/09/04 04:48:07;;;;;;;;;;;;;;;15.31;100.00;101456.94;5320561;27;19920;-76
2022/09/04 04:50:58;;;;;;;;;;;;;;;15.29;100.00;101456.28;5320855;27;19920;-76
2022/09/04 04:53:48;;;;;;;;;;;;;;;15.29;100.00;101457.09;5321702;27;19920;-76
2022/09/04 04:56:44;;;;;;;;;;;;;;;15.31;100.00;101465.00;5317802;27;19920;-76
2022/09/04 04:59:22;;;;;;;;;;;;;;;15.31;100.00;101465.00;5322927;27;19916;-76
2022/09/04 05:02:17;;;;;;;;;;;;;;;15.30;100.00;101466.00;5320157;27;19919;-76
2022/09/04 05:05:12;;;;;;;;;;;;;;;15.27;100.00;101472.53;5316621;27;20367;-77
2022/09/04 05:07:54;;;;;;;;;;;;;;;15.26;100.00;101484.28;5355446;27;19916;-76
2022/09/04 05:10:26;;;;;;;;;;;;;;;15.29;100.00;101485.84;5326850;27;19916;-76
2022/09/04 05:13:15;;;;;;;;;;;;;;;15.28;100.00;101487.66;5318751;27;19931;-77
2022/09/04 05:16:05;;;;;;;;;;;;;;;15.32;100.00;101489.03;5314565;27;19924;-76
2022/09/04 05:18:42;;;;;;;;;;;;;;;15.39;100.00;101491.94;5320203;27;19959;-76
2022/09/04 05:21:18;;;;;;;;;;;;;;;15.47;100.00;101497.34;5321880;27;19970;-75
2022/09/04 05:23:57;;;;;;;;;;;;;;;15.60;100.00;101506.84;5319198;27;19927;-75
2022/09/04 05:26:34;;;;;;;;;;;;;;;15.68;100.00;101507.72;5313748;27;20427;-75
2022/09/04 05:29:26;;;;;;;;;;;;;;;15.79;100.00;101520.09;5313259;27;19924;-76
2022/09/04 05:32:01;;;;;;;;;;;;;;;15.91;100.00;101517.13;5311434;27;19931;-76
2022/09/04 05:35:08;;;;;;;;;;;;;;;16.03;100.00;101518.53;5320449;27;20017;-77
2022/09/04 05:37:39;;;;;;;;;;;;;;;16.13;100.00;101526.44;5297385;28;20333;-76
2022/09/04 05:40:29;;;;;;;;;;;;;;;16.20;100.00;101532.91;5315988;27;20023;-76
2022/09/04 05:43:00;;;;;;;;;;;;;;;16.29;100.00;101529.22;5331119;27;19916;-76
2022/09/04 05:45:40;;;;;;;;;;;;;;;16.34;100.00;101531.41;5320894;27;19920;-76
2022/09/04 05:48:27;;;;;;;;;;;;;;;16.41;100.00;101537.84;5321979;27;19916;-76
2022/09/04 05:51:17;;;;;;;;;;;;;;;16.48;100.00;101541.56;5320389;28;20345;-76
2022/09/04 05:53:58;;;;;;;;;;;;;;;16.58;100.00;101549.47;5320749;27;19916;-76
2022/09/04 05:56:54;;;;;;;;;;;;;;;16.65;100.00;101553.19;5320027;27;20362;-76
2022/09/04 05:59:26;;;;;;;;;;;;;;;16.66;100.00;101559.44;5319481;27;20585;-76
2022/09/04 06:02:30;;;;;;;;;;;;;;;16.65;100.00;101558.59;5320383;27;19920;-76
2022/09/04 06:05:12;;;;;;;;;;;;;;;16.69;100.00;101551.88;5306051;28;19916;-76
2022/09/04 06:07:58;;;;;;;;;;;;;;;16.74;100.00;101559.44;5318201;27;19958;-76
2022/09/04 06:10:48;;;;;;;;;;;;;;;16.80;100.00;101562.31;5319037;27;19947;-76
2022/09/04 06:13:39;;;;;;;;;;;;;;;16.87;100.00;101562.53;5320709;27;19959;-77
2022/09/04 06:16:20;;;;;;;;;;;;;;;16.95;100.00;101576.03;5322408;27;19928;-77
2022/09/04 06:18:54;;;;;;;;;;;;;;;17.04;100.00;101567.94;5321864;27;20411;-77
2022/09/04 06:21:45;;;;;;;;;;;;;;;17.10;100.00;101559.19;5322427;27;19920;-76
2022/09/04 06:24:19;;;;;;;;;;;;;;;17.22;100.00;101565.94;5324960;27;20376;-77
2022/09/04 06:26:53;;;;;;;;;;;;;;;17.35;100.00;101570.81;5323262;27;20022;-77
2022/09/04 06:29:30;;;;;;;;;;;;;;;17.49;100.00;101572.81;5323878;27;19924;-77
2022/09/04 06:32:05;;;;;;;;;;;;;;;17.65;100.00;101569.25;5321501;27;20309;-77
2022/09/04 06:34:55;;;;;;;;;;;;;;;17.92;100.00;101570.75;5322080;27;19924;-77
2022/09/04 06:37:29;;;;;;;;;;;;;;;18.26;100.00;101580.41;5324394;27;19999;-77
2022/09/04 06:40:09;;;;;;;;;;;;;;;18.66;100.00;101578.53;5323856;27;19926;-77
2022/09/04 06:42:59;;;;;;;;;;;;;;;19.07;100.00;101580.13;5323460;27;19916;-77
2022/09/04 06:45:48;;;;;;;;;;;;;;;19.60;100.00;101574.75;5319547;27;19916;-78
2022/09/04 06:48:22;;;;;;;;;;;;;;;20.16;100.00;101577.06;5321356;27;19924;-77
2022/09/04 06:50:55;;;;;;;;;;;;;;;20.53;100.00;101573.38;5324684;27;19947;-77
2022/09/04 06:53:35;;;;;;;;;;;;;;;20.89;100.00;101574.41;5323558;28;19927;-77
2022/09/04 06:56:19;;;;;;;;;;;;;;;21.26;100.00;101572.47;5322562;27;19919;-78
2022/09/04 06:59:03;;;;;;;;;;;;;;;21.75;100.00;101577.03;5323674;27;19931;-75
2022/09/04 07:01:40;;;;;;;;;;;;;;;22.10;100.00;101569.72;5319391;27;19926;-75
2022/09/04 07:04:25;;;;;;;;;;;;;;;22.49;100.00;101569.28;5326646;27;20011;-76
2022/09/04 07:07:06;;;;;;;;;;;;;;;22.74;100.00;101570.41;5337563;27;19923;-76
2022/09/04 07:09:43;;;;;;;;;;;;;;;23.03;100.00;101568.34;5326532;27;20311;-76
2022/09/04 07:12:35;;;;;;;;;;;;;;;23.32;100.00;101579.94;5324695;27;19920;-76
2022/09/04 07:15:16;;;;;;;;;;;;;;;23.84;100.00;101583.66;5357210;27;19916;-76
2022/09/04 07:17:52;;;;;;;;;;;;;;;24.08;100.00;101584.88;5326438;27;20326;-76
2022/09/04 07:20:30;;;;;;;;;;;;;;;24.09;100.00;101583.81;5323291;27;19947;-77
2022/09/04 07:23:21;;;;;;;;;;;;;;;24.38;100.00;101581.59;5326815;27;20362;-76
2022/09/04 07:25:52;;;;;;;;;;;;;;;24.75;100.00;101584.59;5334637;27;19920;-77
2022/09/04 07:28:26;;;;;;;;;;;;;;;24.94;100.00;101588.25;5326910;27;20292;-77
2022/09/04 07:31:03;;;;;;;;;;;;;;;25.03;100.00;101589.66;5327141;27;19963;-77
2022/09/04 07:33:48;;;;;;;;;;;;;;;25.12;100.00;101594.84;5327877;27;19920;-76
2022/09/04 07:36:27;;;;;;;;;;;;;;;25.46;100.00;101602.59;5340923;27;19931;-76
2022/09/04 07:39:08;;;;;;;;;;;;;;;25.71;100.00;101607.19;5327865;27;19917;-76
2022/09/04 07:41:52;;;;;;;;;;;;;;;25.98;100.00;101615.16;5327546;27;20011;-77
2022/09/04 07:44:33;;;;;;;;;;;;;;;26.31;100.00;101613.94;5322987;27;19924;-77
2022/09/04 07:47:19;;;;;;;;;;;;;;;26.79;100.00;101610.41;5325698;27;20326;-77
2022/09/04 07:49:53;;;;;;;;;;;;;;;27.60;100.00;101608.09;5326297;27;20088;-77
2022/09/04 07:52:24;;;;;;;;;;;;;;;27.58;100.00;101612.97;5325268;27;20391;-77
2022/09/04 07:55:07;;;;;;;;;;;;;;;26.66;100.00;101619.63;5328520;27;19942;-76
2022/09/04 07:57:57;;;;;;;;;;;;;;;25.82;100.00;101619.28;5327791;27;19916;-77
2022/09/04 08:00:32;;;;;;;;;;;;;;;25.65;100.00;101625.31;5336160;27;20012;-76
2022/09/04 08:03:27;;;;;;;;;;;;;;;26.21;100.00;101623.53;5324430;27;19922;-77
2022/09/04 08:06:05;;;;;;;;;;;;;;;26.91;100.00;101614.03;5336187;27;19971;-77
2022/09/04 08:08:55;;;;;;;;;;;;;;;27.91;100.00;101614.28;5327715;27;19912;-77
2022/09/04 08:11:34;;;;;;;;;;;;;;;28.96;100.00;101631.56;5311502;27;19924;-77
2022/09/04 08:14:14;;;;;;;;;;;;;;;29.66;100.00;101634.09;5328382;27;19927;-77
2022/09/04 08:16:55;;;;;;;;;;;;;;;30.22;100.00;101629.41;5329672;27;20076;-77
2022/09/04 08:19:34;;;;;;;;;;;;;;;30.53;100.00;101633.41;5312305;27;19953;-77
2022/09/04 08:22:10;;;;;;;;;;;;;;;31.17;100.00;101636.56;5345661;27;19928;-77
2022/09/04 08:25:07;;;;;;;;;;;;;;;32.04;95.41;101631.69;5310550;27;19916;-77
2022/09/04 08:27:50;;;;;;;;;;;;;;;32.70;94.90;101633.13;5314722;27;19922;-77
2022/09/04 08:30:21;;;;;;;;;;;;;;;33.57;79.91;101641.47;5311995;27;19960;-78
2022/09/04 08:33:12;;;;;;;;;;;;;;;34.04;75.56;101637.50;5319752;27;20371;-78
2022/09/04 08:35:57;;;;;;;;;;;;;;;34.14;80.14;101644.16;5316393;27;19920;-77
2022/09/04 08:38:36;;;;;;;;;;;;;;;34.97;77.22;101650.94;5322393;27;19916;-77
2022/09/04 08:41:16;;;;;;;;;;;;;;;35.35;68.33;101651.25;5326691;27;19931;-77
2022/09/04 08:43:54;;;;;;;;;;;;;;;35.35;68.92;101651.25;5325865;27;19969;-77
2022/09/04 08:46:43;;;;;;;;;;;;;;;35.69;62.77;101651.16;5321502;27;19919;-77
2022/09/04 08:49:27;;;;;;;;;;;;;;;35.34;61.22;101658.72;5323941;27;20003;-77
2022/09/04 08:52:01;;;;;;;;;;;;;;;34.93;64.79;101666.50;5323152;27;19920;-77
2022/09/04 08:54:35;;;;;;;;;;;;;;;35.15;62.24;101655.81;5318370;27;19920;-77
2022/09/04 08:57:13;;;;;;;;;;;;;;;35.44;58.22;101657.00;5323703;27;20472;-77
2022/09/04 09:00:00;;;;;;;;;;;;;;;36.12;58.22;101658.81;5317289;27;19916;-77
2022/09/04 09:02:50;;;;;;;;;;;;;;;37.65;55.01;101654.91;5320162;27;19916;-77
2022/09/04 09:05:21;;;;;;;;;;;;;;;37.66;49.01;101659.34;5319314;27;20015;-78
2022/09/04 09:07:59;;;;;;;;;;;;;;;37.81;45.99;101664.59;5318071;27;20479;-77
2022/09/04 09:10:48;;;;;;;;;;;;;;;37.86;45.06;101658.13;5322528;27;19943;-77
2022/09/04 09:13:45;;;;;;;;;;;;;;;38.24;45.29;101657.09;5321937;27;19930;-77
2022/09/04 09:16:35;;;;;;;;;;;;;;;38.07;43.79;101658.53;5289558;27;19959;-78
2022/09/04 09:19:15;;;;;;;;;;;;;;;37.89;43.53;101659.47;5314652;27;20019;-78
2022/09/04 09:21:52;;;;;;;;;;;;;;;38.06;43.84;101658.84;5317230;27;20350;-78
2022/09/04 09:24:51;;;;;;;;;;;;;;;38.29;41.20;101657.00;5314499;27;20479;-78
2022/09/04 09:27:37;;;;;;;;;;;;;;;38.84;43.22;101650.53;5316689;27;19955;-77
2022/09/04 09:30:15;;;;;;;;;;;;;;;38.95;40.84;101649.13;5316504;27;20007;-78
2022/09/04 09:32:49;;;;;;;;;;;;;;;39.01;39.76;101650.66;5320522;27;19920;-78
2022/09/04 09:35:46;;;;;;;;;;;;;;;38.73;40.15;101645.19;5321366;27;20553;-78
2022/09/04 09:38:23;;;;;;;;;;;;;;;38.53;40.14;101648.41;5313028;27;20307;-77
2022/09/04 09:41:17;;;;;;;;;;;;;;;38.77;38.59;101654.56;5316663;27;19924;-77
2022/09/04 09:44:08;;;;;;;;;;;;;;;38.47;40.30;101652.44;5319939;27;19916;-78
2022/09/04 09:46:52;;;;;;;;;;;;;;;39.01;40.17;101653.44;5318266;27;19916;-77
2022/09/04 09:49:42;;;;;;;;;;;;;;;39.74;38.65;101655.22;5317673;27;19927;-77
2022/09/04 09:52:32;;;;;;;;;;;;;;;40.77;36.51;101651.06;5313075;27;19963;-77
2022/09/04 09:55:20;;;;;;;;;;;;;;;40.29;35.62;101653.94;5322358;27;19917;-78
2022/09/04 09:58:10;;;;;;;;;;;;;;;39.58;36.73;101652.84;5304218;27;20442;-77
2022/09/04 10:00:59;;;;;;;;;;;;;;;40.18;36.51;101665.41;5310969;27;19920;-78
2022/09/04 10:03:37;;;;;;;;;;;;;;;39.57;36.04;101661.53;5310882;27;20346;-78
2022/09/04 10:06:27;;;;;;;;;;;;;;;38.85;36.63;101666.09;5308987;27;19924;-78
2022/09/04 10:09:17;;;;;;;;;;;;;;;35.17;43.64;101661.88;5308697;27;20330;-78
2022/09/04 10:12:02;;;;;;;;;;;;;;;33.59;54.65;101658.63;5309176;27;19924;-77
2022/09/04 10:14:39;;;;;;;;;;;;;;;36.18;48.43;101660.38;5312418;27;19920;-77
2022/09/04 10:17:10;;;;;;;;;;;;;;;37.76;40.20;101650.78;5319019;27;20319;-78
2022/09/04 10:20:20;;;;;;;;;;;;;;;38.96;38.67;101653.56;5308622;27;19927;-78
2022/09/04 10:23:09;;;;;;;;;;;;;;;38.85;36.39;101653.00;5284623;28;20416;-77
2022/09/04 10:25:59;;;;;;;;;;;;;;;36.50;39.10;101654.19;5263680;28;20385;-77
2022/09/04 10:28:48;;;;;;;;;;;;;;;36.81;39.52;101658.47;5307801;27;19916;-78
2022/09/04 10:31:25;;;;;;;;;;;;;;;38.28;36.64;101656.19;5316898;27;19974;-77
2022/09/04 10:34:09;;;;;;;;;;;;;;;38.15;34.95;101657.84;5317006;27;20405;-78
2022/09/04 10:36:52;;;;;;;;;;;;;;;37.90;37.09;101661.94;5322556;27;19950;-77
2022/09/04 10:42:45;;;;;;;;;;;;;;;37.92;36.65;101656.88;5315427;27;20304;-78
2022/09/04 10:45:16;;;;;;;;;;;;;;;38.95;34.04;101660.28;5322474;27;19924;-76
2022/09/04 10:48:02;;;;;;;;;;;;;;;38.56;34.02;101658.94;5321352;27;19942;-76
2022/09/04 10:50:34;;;;;;;;;;;;;;;38.16;34.96;101658.69;5314723;27;19973;-76
2022/09/04 10:53:10;;;;;;;;;;;;;;;39.99;32.23;101651.75;5317976;27;20257;-76
2022/09/04 10:55:58;;;;;;;;;;;;;;;40.77;30.45;101667.84;5317941;27;19959;-76
2022/09/04 10:58:29;;;;;;;;;;;;;;;40.29;30.69;101656.75;5315169;27;19916;-77
2022/09/04 11:01:12;;;;;;;;;;;;;;;40.96;30.99;101653.56;5315143;27;19935;-77
2022/09/04 11:03:57;;;;;;;;;;;;;;;41.35;28.96;101662.09;5319006;27;20392;-77
2022/09/04 11:06:41;;;;;;;;;;;;;;;41.14;28.89;101662.75;5320736;27;20292;-77
2022/09/04 11:09:27;;;;;;;;;;;;;;;42.07;27.71;101645.50;5313473;27;19916;-77
2022/09/04 11:12:09;;;;;;;;;;;;;;;41.49;28.57;101639.50;5320331;27;19978;-76
2022/09/04 11:14:56;;;;;;;;;;;;;;;40.54;28.98;101647.63;5316487;27;19927;-76
2022/09/04 11:17:55;;;;;;;;;;;;;;;40.52;28.70;101649.91;5351357;27;20292;-75
2022/09/04 11:20:46;;;;;;;;;;;;;;;40.03;29.15;101654.72;5311984;27;19920;-75
2022/09/04 11:23:28;;;;;;;;;;;;;;;40.94;28.40;101650.28;5318331;27;19930;-76
2022/09/04 11:26:25;;;;;;;;;;;;;;;42.05;26.81;101645.84;5309380;27;19920;-76
2022/09/04 11:29:32;;;;;;;;;;;;;;;42.99;26.62;101643.88;5312936;27;19924;-76
2022/09/04 11:32:16;;;;;;;;;;;;;;;44.05;23.54;101653.56;5287460;28;19970;-76
2022/09/04 11:35:12;;;;;;;;;;;;;;;40.84;26.19;101647.00;5313934;27;20006;-76
2022/09/04 11:38:02;;;;;;;;;;;;;;;40.16;27.09;101647.34;5315314;27;19924;-76
2022/09/04 11:40:51;;;;;;;;;;;;;;;41.11;26.40;101646.63;5324743;27;19924;-76
2022/09/04 11:43:38;;;;;;;;;;;;;;;40.41;26.64;101648.56;5321358;27;19916;-76
2022/09/04 11:46:29;;;;;;;;;;;;;;;39.21;27.42;101656.88;5319237;27;19924;-76
2022/09/04 11:49:37;;;;;;;;;;;;;;;39.25;27.80;101652.31;5318034;27;19920;-77
2022/09/04 11:52:25;;;;;;;;;;;;;;;38.67;29.11;101652.00;5305112;27;19996;-77
2022/09/04 11:55:15;;;;;;;;;;;;;;;39.94;27.96;101653.84;5320973;27;20011;-77
2022/09/04 11:57:59;;;;;;;;;;;;;;;40.13;26.34;101651.59;5316863;27;19916;-77
2022/09/04 12:00:49;;;;;;;;;;;;;;;39.90;27.24;101662.03;5319683;27;19916;-77
2022/09/04 12:03:28;;;;;;;;;;;;;;;40.19;27.12;101643.91;5317366;27;20057;-77
2022/09/04 12:06:05;;;;;;;;;;;;;;;41.62;25.56;101641.22;5321682;27;19920;-76
2022/09/04 12:09:06;;;;;;;;;;;;;;;42.75;24.40;101648.19;5317641;27;20288;-76
2022/09/04 12:11:44;;;;;;;;;;;;;;;42.17;24.80;101653.56;5317597;27;19924;-76
2022/09/04 12:14:34;;;;;;;;;;;;;;;39.87;26.72;101657.09;5311024;27;19923;-76
2022/09/04 12:17:07;;;;;;;;;;;;;;;39.53;27.06;101655.78;5318775;27;19921;-76
2022/09/04 12:19:49;;;;;;;;;;;;;;;38.95;27.88;101661.09;5313752;27;19927;-76
2022/09/04 12:22:21;;;;;;;;;;;;;;;38.85;28.11;101660.50;5318298;27;19998;-76
2022/09/04 12:24:55;;;;;;;;;;;;;;;39.78;27.68;101662.66;5316805;27;19927;-76
2022/09/04 12:27:45;;;;;;;;;;;;;;;40.74;26.30;101662.09;5327829;27;19973;-76
2022/09/04 12:30:30;;;;;;;;;;;;;;;41.24;24.78;101661.63;5332708;27;20353;-76
2022/09/04 12:33:16;;;;;;;;;;;;;;;41.63;24.94;101658.88;5337734;27;19920;-76
2022/09/04 12:35:49;;;;;;;;;;;;;;;41.40;25.06;101656.31;5315203;27;19970;-77
2022/09/04 12:38:46;;;;;;;;;;;;;;;40.57;25.41;101658.16;5316489;27;19919;-77
2022/09/04 12:41:43;;;;;;;;;;;;;;;36.98;28.87;101655.19;5314932;27;19929;-77
2022/09/04 12:44:33;;;;;;;;;;;;;;;36.04;30.20;101657.47;5312071;27;20461;-76
2022/09/04 12:47:04;;;;;;;;;;;;;;;35.53;31.12;101656.03;5318852;27;19959;-76
2022/09/04 12:49:56;;;;;;;;;;;;;;;35.10;33.02;101657.78;5310423;27;20015;-77
2022/09/04 12:52:39;;;;;;;;;;;;;;;35.72;31.53;101656.19;5303557;27;19924;-77
2022/09/04 12:55:21;;;;;;;;;;;;;;;36.36;30.22;101652.41;5306425;27;20023;-77
2022/09/04 12:57:59;;;;;;;;;;;;;;;36.63;28.64;101651.78;5318639;27;19923;-74
2022/09/04 13:00:39;;;;;;;;;;;;;;;37.65;28.96;101657.69;5317102;27;19920;-77
2022/09/04 13:03:27;;;;;;;;;;;;;;;38.90;28.01;101658.41;5325561;27;20000;-77
2022/09/04 13:06:10;;;;;;;;;;;;;;;40.66;25.60;101654.50;5315550;27;20481;-77
2022/09/04 13:08:49;;;;;;;;;;;;;;;39.64;25.94;101668.34;5307271;27;19924;-77
2022/09/04 13:11:32;;;;;;;;;;;;;;;40.11;25.97;101672.66;5316239;27;20429;-77
2022/09/04 13:14:27;;;;;;;;;;;;;;;40.69;25.44;101676.22;5308489;27;19924;-77
2022/09/04 13:17:04;;;;;;;;;;;;;;;40.30;24.79;101664.81;5313993;27;19924;-77
2022/09/04 13:19:44;;;;;;;;;;;;;;;40.92;25.13;101668.53;5313230;27;20395;-75
2022/09/04 13:22:45;;;;;;;;;;;;;;;41.04;24.36;101665.88;5312649;27;19920;-77
2022/09/04 13:25:21;;;;;;;;;;;;;;;38.85;24.83;101669.72;5270473;27;19916;-76
2022/09/04 13:28:02;;;;;;;;;;;;;;;38.30;25.45;101655.88;5312838;27;20059;-76
2022/09/04 13:30:37;;;;;;;;;;;;;;;38.69;25.56;101662.84;5310482;27;20378;-75
2022/09/04 13:33:10;;;;;;;;;;;;;;;39.47;23.74;101657.88;5313414;27;19931;-76
2022/09/04 13:35:52;;;;;;;;;;;;;;;40.23;22.79;101667.25;5324188;27;19975;-75
2022/09/04 13:38:26;;;;;;;;;;;;;;;37.12;23.80;101669.09;5322448;27;20299;-76
2022/09/04 13:41:06;;;;;;;;;;;;;;;36.13;24.93;101668.75;5317429;27;20020;-76
2022/09/04 13:43:50;;;;;;;;;;;;;;;35.56;25.85;101679.63;5318950;27;32103;-76
2022/09/04 13:46:24;;;;;;;;;;;;;;;35.88;25.68;101661.56;5328688;27;19946;-76
2022/09/04 13:49:01;;;;;;;;;;;;;;;36.96;24.07;101676.88;5327342;27;20386;-76
2022/09/04 13:51:41;;;;;;;;;;;;;;;37.51;23.78;101663.19;5318552;27;19920;-76
2022/09/04 13:54:18;;;;;;;;;;;;;;;37.99;22.95;101670.41;5325184;27;19920;-76
2022/09/04 13:57:06;;;;;;;;;;;;;;;37.22;23.17;101668.97;5323258;27;20124;-76